Ernest Campbell — WDB3005 — position and weather

sailwx.info

Track history (hours):
 
Tides and Currents Weather Stations Pressure Air Temp Water Temp Dewpoint Dewpoint Depression Visibility Wind Speed Wind Dir Waves Ship Positions

Ernest Campbell

Owner: Campbell Leasing Company LLC, Wrangell, AK. More information available from US FCC via Universal Licensing System and Coast Guard Vessel Documentation Center.

Last reported at 2014-Oct-23 00:33 UTC. Time now 2014-Oct-23 01:34 UTC.
Position N 47°35' W 122°21'.

Length 33 m; draft 4.6 m.

Type: Tow > 200 m length. MMSI: 366882320.

Date/timePositionNaut miles runAvg speedWind from/ knotsBaromVisibWave heightAir tempDewpointWater temp
2014-Oct-23 00:33N 47°35' W 122°21'0 0.0
2014-Oct-23 00:24N 47°35' W 122°21'0 0.0
2014-Oct-22 23:33N 47°35' W 122°21'0 0.0
2014-Oct-22 23:24N 47°35' W 122°21'0 0.0
2014-Oct-22 22:33N 47°35' W 122°21'0 0.0
2014-Oct-22 22:33N 47°35' W 122°21'0 0.0
2014-Oct-22 21:33N 47°35' W 122°21'0 0.0
2014-Oct-22 21:33N 47°35' W 122°21'0 0.0
2014-Oct-22 20:30N 47°35' W 122°21'0 0.0
2014-Oct-22 20:18N 47°35' W 122°21'0 0.0
2014-Oct-22 19:27N 47°35' W 122°21'0 0.0
2014-Oct-22 19:18N 47°35' W 122°21'0 0.1
2014-Oct-22 18:33N 47°35' W 122°21'0 0.0
2014-Oct-22 18:33N 47°35' W 122°21'0 0.0
2014-Oct-22 17:33N 47°35' W 122°21'0 0.0
2014-Oct-22 17:33N 47°35' W 122°21'0 0.0
2014-Oct-22 16:09N 47°35' W 122°21'0 0.1
2014-Oct-22 16:03N 47°35' W 122°21'0 0.0
2014-Oct-22 15:33N 47°35' W 122°21'0 0.0
2014-Oct-22 15:33N 47°35' W 122°21'0 0.0
2014-Oct-22 14:33N 47°35' W 122°21'0 0.0
2014-Oct-22 14:33N 47°35' W 122°21'0 0.0
2014-Oct-22 13:33N 47°35' W 122°21'0 0.0
2014-Oct-22 13:27N 47°35' W 122°21'0 0.0
2014-Oct-22 12:30N 47°35' W 122°21'0 0.0
2014-Oct-22 12:27N 47°35' W 122°21'0 0.0
2014-Oct-22 11:33N 47°35' W 122°21'0 0.0
2014-Oct-22 11:12N 47°35' W 122°21'0 0.0
2014-Oct-22 10:27N 47°35' W 122°21'0 0.0
2014-Oct-22 09:18N 47°35' W 122°21'0 0.0
2014-Oct-22 08:33N 47°35' W 122°21'0 0.0
2014-Oct-22 07:30N 47°35' W 122°21'0 0.0
2014-Oct-22 06:57N 47°35' W 122°21'0 0.0
2014-Oct-22 06:30N 47°35' W 122°21'0 0.0
2014-Oct-22 06:27N 47°35' W 122°21'0 0.0
2014-Oct-22 05:57N 47°35' W 122°21'0 0.0
2014-Oct-22 05:24N 47°35' W 122°21'0 0.0
2014-Oct-22 04:30N 47°35' W 122°21'0 0.0
2014-Oct-22 03:27N 47°35' W 122°21'0 0.0
2014-Oct-22 02:24N 47°35' W 122°21'0 0.0
2014-Oct-22 00:11N 47°35' W 122°21'1 1.9
2014-Oct-21 23:52N 47°35' W 122°21'0 1.3
2014-Oct-21 23:33N 47°34' W 122°21'0 2.5
2014-Oct-21 23:33N 47°34' W 122°21'1 1.2
2014-Oct-21 22:33N 47°36' W 122°21'0 2.2
2014-Oct-21 22:33N 47°36' W 122°21'2 2.1
2014-Oct-21 21:33N 47°37' W 122°24'0 3.1
2014-Oct-21 21:31N 47°37' W 122°24'5 5.5
2014-Oct-21 20:33N 47°41' W 122°28'0 6.1
2014-Oct-21 20:31N 47°41' W 122°28'6 6.3
2014-Oct-21 19:33N 47°47' W 122°28'0 6.4
2014-Oct-21 19:31N 47°47' W 122°28'6 6.4
2014-Oct-21 18:33N 47°53' W 122°30'0 6.2
2014-Oct-21 18:31N 47°54' W 122°30'6 5.9
2014-Oct-21 17:33N 47°58' W 122°36'5 5.3
2014-Oct-21 16:32N 48°03' W 122°39'5 4.4
2014-Oct-21 15:31N 48°07' W 122°41'4 4.1
2014-Oct-21 14:31N 48°10' W 122°46'5 4.5
2014-Oct-21 13:27N 48°14' W 122°50'6 6.1
2014-Oct-21 12:32N 48°19' W 122°47'6 5.9
2014-Oct-21 11:33N 48°25' W 122°45'5 5.4
2014-Oct-21 10:33N 48°30' W 122°45'5 4.6
2014-Oct-21 09:33N 48°35' W 122°45'5 5.0
2014-Oct-21 08:33N 48°40' W 122°44'6 5.6
2014-Oct-21 07:33N 48°45' W 122°47'7 6.2
2014-Oct-21 06:30N 48°51' W 122°46'1 0.1
2014-Oct-20 23:06N 48°52' W 122°45'0 0.1
2014-Oct-20 14:18N 48°51' W 122°46'2 2.0
2014-Oct-20 13:33N 48°50' W 122°46'7 7.1
2014-Oct-20 12:33N 48°43' W 122°44'7 7.0
2014-Oct-20 11:33N 48°36' W 122°45'8 7.9
2014-Oct-20 10:33N 48°28' W 122°44'9 7.6
2014-Oct-20 09:26N 48°19' W 122°46'17 5.9
2014-Oct-20 06:31N 48°03' W 122°38'7 7.1
2014-Oct-20 05:33N 47°57' W 122°32'0 5.5
2014-Oct-20 05:32N 47°57' W 122°32'7 7.3
2014-Oct-20 04:33N 47°51' W 122°27'0 2.6
2014-Oct-20 04:33N 47°51' W 122°27'8 7.7
2014-Oct-20 03:33N 47°43' W 122°26'0 0.0
2014-Oct-20 03:33N 47°43' W 122°26'7 6.9
2014-Oct-20 02:33N 47°37' W 122°23'0 6.6
2014-Oct-20 02:33N 47°37' W 122°23'2 1.7
2014-Oct-20 01:29N 47°35' W 122°21'0 0.3
2014-Oct-20 01:08N 47°35' W 122°21'1 1.9
2014-Oct-20 00:33N 47°34' W 122°21'0 0.0
2014-Oct-20 00:27N 47°34' W 122°21'0 0.0
2014-Oct-19 23:33N 47°34' W 122°21'0 0.0
2014-Oct-19 23:12N 47°34' W 122°21'0 0.0
2014-Oct-19 22:33N 47°34' W 122°21'0 0.0
2014-Oct-19 22:27N 47°34' W 122°21'0 0.0
2014-Oct-19 21:33N 47°34' W 122°21'0 0.0
2014-Oct-19 21:27N 47°34' W 122°21'0 0.0
2014-Oct-19 20:33N 47°34' W 122°21'0 0.0
2014-Oct-19 20:27N 47°34' W 122°21'0 0.0
2014-Oct-19 19:33N 47°34' W 122°21'0 0.0
2014-Oct-19 19:30N 47°34' W 122°21'0 0.0
2014-Oct-19 18:33N 47°34' W 122°21'0 0.0
2014-Oct-19 18:24N 47°34' W 122°21'0 0.0
2014-Oct-19 17:27N 47°34' W 122°21'0 0.0
2014-Oct-19 17:18N 47°34' W 122°21'0 0.0
2014-Oct-19 16:30N 47°34' W 122°21'0 0.0
2014-Oct-19 16:21N 47°34' W 122°21'0 0.0
2014-Oct-19 15:33N 47°34' W 122°21'0 0.0
2014-Oct-19 15:21N 47°34' W 122°21'0 0.0
2014-Oct-19 14:33N 47°34' W 122°21'0 0.0
2014-Oct-19 14:11N 47°34' W 122°21'0 0.0
2014-Oct-19 13:29N 47°34' W 122°21'0 0.0
2014-Oct-19 13:26N 47°34' W 122°21'0 0.0
2014-Oct-19 12:32N 47°34' W 122°21'0 0.0
2014-Oct-19 12:26N 47°34' W 122°21'0 0.0
2014-Oct-19 11:26N 47°34' W 122°21'0 0.0
2014-Oct-19 11:26N 47°34' W 122°21'0 0.0
2014-Oct-19 10:32N 47°34' W 122°21'0 0.0
2014-Oct-19 10:26N 47°34' W 122°21'0 0.0
2014-Oct-19 09:32N 47°34' W 122°21'0 0.0
2014-Oct-19 09:26N 47°34' W 122°21'0 0.0
2014-Oct-19 08:32N 47°34' W 122°21'0 0.0
2014-Oct-19 08:05N 47°34' W 122°21'0 0.0
2014-Oct-19 07:32N 47°34' W 122°21'0 0.0
2014-Oct-19 07:20N 47°34' W 122°21'0 0.0
2014-Oct-19 06:32N 47°34' W 122°21'0 0.0
2014-Oct-19 05:35N 47°34' W 122°21'0 0.0
2014-Oct-19 05:29N 47°34' W 122°21'0 0.0
2014-Oct-19 04:26N 47°34' W 122°21'0 0.0
2014-Oct-19 04:20N 47°34' W 122°21'0 0.0
2014-Oct-19 03:32N 47°34' W 122°21'0 0.0
2014-Oct-19 03:20N 47°34' W 122°21'0 0.0
2014-Oct-19 02:32N 47°34' W 122°21'0 0.0
2014-Oct-19 02:19N 47°34' W 122°21'0 0.0
2014-Oct-19 01:32N 47°34' W 122°21'0 0.0
2014-Oct-19 00:32N 47°34' W 122°21'0 0.0
2014-Oct-18 23:29N 47°34' W 122°21'0 0.0
2014-Oct-18 22:29N 47°34' W 122°21'0 0.0
2014-Oct-18 21:31N 47°34' W 122°21'0 0.0
2014-Oct-18 21:04N 47°34' W 122°21'0 0.0
2014-Oct-18 20:31N 47°34' W 122°21'0 0.0
2014-Oct-18 20:19N 47°34' W 122°21'0 0.0
2014-Oct-18 19:33N 47°34' W 122°21'0 0.0
2014-Oct-18 19:29N 47°34' W 122°21'0 0.0
2014-Oct-18 18:33N 47°34' W 122°21'0 0.0
2014-Oct-18 18:24N 47°34' W 122°21'0 0.0
2014-Oct-18 17:33N 47°34' W 122°21'0 0.0
2014-Oct-18 17:28N 47°34' W 122°21'0 0.0
2014-Oct-18 16:33N 47°34' W 122°21'0 0.0
2014-Oct-18 16:28N 47°34' W 122°21'0 0.0
2014-Oct-18 15:33N 47°34' W 122°21'0 0.0
2014-Oct-18 15:29N 47°34' W 122°21'0 0.0
2014-Oct-18 14:33N 47°34' W 122°21'0 0.0
2014-Oct-18 14:29N 47°34' W 122°21'0 0.0
2014-Oct-18 13:33N 47°34' W 122°21'0 0.0
2014-Oct-18 13:33N 47°34' W 122°21'0 0.0
2014-Oct-18 12:34N 47°34' W 122°21'0 0.0
2014-Oct-18 12:34N 47°34' W 122°21'0 0.0
2014-Oct-18 11:34N 47°34' W 122°21'0 0.0
2014-Oct-18 11:33N 47°34' W 122°21'0 0.0
2014-Oct-18 10:33N 47°34' W 122°21'0 0.0
2014-Oct-18 10:22N 47°34' W 122°21'0 0.0
2014-Oct-18 09:34N 47°34' W 122°21'0 0.0
2014-Oct-18 09:33N 47°34' W 122°21'0 0.0
2014-Oct-18 08:34N 47°34' W 122°21'0 0.2
2014-Oct-18 08:32N 47°34' W 122°21'0 0.0
2014-Oct-18 07:33N 47°34' W 122°21'0 0.0
2014-Oct-18 07:32N 47°34' W 122°21'0 0.0
2014-Oct-18 06:33N 47°34' W 122°21'0 0.0
2014-Oct-18 06:32N 47°34' W 122°21'0 0.0
2014-Oct-18 05:57N 47°34' W 122°21'0 0.0
2014-Oct-18 05:33N 47°34' W 122°21'0 0.0
2014-Oct-18 04:33N 47°34' W 122°21'0 0.0
2014-Oct-18 04:32N 47°34' W 122°21'0 0.0
2014-Oct-18 03:33N 47°34' W 122°21'0 0.0
2014-Oct-18 03:32N 47°34' W 122°21'0 0.0
2014-Oct-18 02:34N 47°34' W 122°21'0 0.0
2014-Oct-18 02:32N 47°34' W 122°21'0 0.0
2014-Oct-18 01:34N 47°34' W 122°21'0 0.0
2014-Oct-18 01:32N 47°34' W 122°21'0 0.0
2014-Oct-18 00:33N 47°34' W 122°21'0 0.0
2014-Oct-18 00:32N 47°34' W 122°21'0 0.0
2014-Oct-17 23:33N 47°34' W 122°21'0 0.0
2014-Oct-17 23:32N 47°34' W 122°21'0 0.0
2014-Oct-17 22:34N 47°34' W 122°21'0 0.0
2014-Oct-17 22:32N 47°34' W 122°21'0 0.0
2014-Oct-17 21:34N 47°34' W 122°21'0 0.0
2014-Oct-17 21:31N 47°34' W 122°21'0 0.0
2014-Oct-17 20:33N 47°34' W 122°21'0 0.0
2014-Oct-17 20:31N 47°34' W 122°21'0 0.0
2014-Oct-17 19:34N 47°34' W 122°21'0 0.1
2014-Oct-17 19:31N 47°34' W 122°21'0 0.0
2014-Oct-17 18:34N 47°34' W 122°21'0 0.0
2014-Oct-17 18:31N 47°34' W 122°21'0 0.0
2014-Oct-17 17:34N 47°34' W 122°21'0 0.0
2014-Oct-17 17:31N 47°34' W 122°21'0 0.0
2014-Oct-17 16:34N 47°34' W 122°21'0 0.0
2014-Oct-17 16:31N 47°34' W 122°21'0 0.0
2014-Oct-17 15:33N 47°34' W 122°21'0 0.0
2014-Oct-17 15:31N 47°34' W 122°21'0 0.0
2014-Oct-17 14:33N 47°34' W 122°21'0 0.0
2014-Oct-17 14:31N 47°34' W 122°21'0 0.0
2014-Oct-17 13:33N 47°34' W 122°21'0 0.0
2014-Oct-17 13:31N 47°34' W 122°21'0 0.0
2014-Oct-17 12:33N 47°34' W 122°21'0 0.0
2014-Oct-17 12:25N 47°34' W 122°21'0 0.0
2014-Oct-17 11:33N 47°34' W 122°21'0 0.0
2014-Oct-17 11:30N 47°34' W 122°21'0 0.0
2014-Oct-17 10:33N 47°34' W 122°21'0 0.0
2014-Oct-17 10:30N 47°34' W 122°21'0 0.0
2014-Oct-17 09:32N 47°34' W 122°21'0 0.0
2014-Oct-17 09:30N 47°34' W 122°21'0 0.0
2014-Oct-17 08:33N 47°34' W 122°21'0 0.1
2014-Oct-17 08:29N 47°34' W 122°21'0 0.0
2014-Oct-17 07:33N 47°34' W 122°21'0 0.0
2014-Oct-17 07:02N 47°34' W 122°21'0 0.0
2014-Oct-17 06:33N 47°34' W 122°21'0 0.0
2014-Oct-17 06:32N 47°34' W 122°21'0 0.0
2014-Oct-17 05:28N 47°34' W 122°21'0 0.0
2014-Oct-17 04:33N 47°34' W 122°21'0 0.0
2014-Oct-17 04:29N 47°34' W 122°21'0 0.0
2014-Oct-17 03:33N 47°34' W 122°21'0 0.0
2014-Oct-17 03:29N 47°34' W 122°21'0 0.0
2014-Oct-17 02:33N 47°34' W 122°21'0 0.0
2014-Oct-17 02:29N 47°34' W 122°21'0 0.0
2014-Oct-17 01:33N 47°34' W 122°21'0 0.0
2014-Oct-17 01:29N 47°34' W 122°21'0 0.0
2014-Oct-17 00:33N 47°34' W 122°21'0 0.0
2014-Oct-17 00:29N 47°34' W 122°21'0 0.0
2014-Oct-16 23:33N 47°34' W 122°21'0 0.0
2014-Oct-16 23:29N 47°34' W 122°21'0 0.0
2014-Oct-16 22:33N 47°34' W 122°21'0 0.0
2014-Oct-16 22:28N 47°34' W 122°21'0 0.0
2014-Oct-16 21:33N 47°34' W 122°21'0 0.0
2014-Oct-16 21:33N 47°34' W 122°21'0 0.0
2014-Oct-16 20:33N 47°34' W 122°21'0 0.0
2014-Oct-16 20:33N 47°34' W 122°21'0 0.0
2014-Oct-16 19:33N 47°34' W 122°21'0 0.0
2014-Oct-16 19:33N 47°34' W 122°21'0 0.0
2014-Oct-16 18:33N 47°34' W 122°21'0 0.0
2014-Oct-16 18:33N 47°34' W 122°21'0 0.0
2014-Oct-16 17:33N 47°34' W 122°21'0 0.0
2014-Oct-16 17:33N 47°34' W 122°21'0 0.0
2014-Oct-16 16:33N 47°34' W 122°21'0 0.0
2014-Oct-16 16:33N 47°34' W 122°21'0 0.0
2014-Oct-16 15:33N 47°34' W 122°21'0 0.0
2014-Oct-16 15:33N 47°34' W 122°21'0 0.0
2014-Oct-16 14:33N 47°34' W 122°21'0 0.0
2014-Oct-16 14:33N 47°34' W 122°21'0 0.0
2014-Oct-16 13:33N 47°34' W 122°21'0 0.0
2014-Oct-16 13:33N 47°34' W 122°21'0 0.0
2014-Oct-16 12:33N 47°34' W 122°21'0 0.0
2014-Oct-16 12:33N 47°34' W 122°21'0 0.0
2014-Oct-16 11:33N 47°34' W 122°21'0 0.0
2014-Oct-16 11:28N 47°34' W 122°21'0 0.0
2014-Oct-16 10:33N 47°34' W 122°21'0 0.0
2014-Oct-16 10:32N 47°34' W 122°21'0 0.0
2014-Oct-16 09:33N 47°34' W 122°21'0 0.0
2014-Oct-16 09:32N 47°34' W 122°21'0 0.0
2014-Oct-16 08:33N 47°34' W 122°21'0 0.0
2014-Oct-16 08:32N 47°34' W 122°21'0 0.0
2014-Oct-16 07:33N 47°34' W 122°21'0 0.0
2014-Oct-16 07:32N 47°34' W 122°21'0 0.0
2014-Oct-16 06:33N 47°34' W 122°21'0 0.0
2014-Oct-16 06:32N 47°34' W 122°21'0 0.0
2014-Oct-16 05:57N 47°34' W 122°21'0 0.0
2014-Oct-16 05:33N 47°34' W 122°21'0 0.0
2014-Oct-16 04:33N 47°34' W 122°21'0 0.0
2014-Oct-16 04:32N 47°34' W 122°21'0 0.0
2014-Oct-16 03:33N 47°34' W 122°21'0 0.0
2014-Oct-16 03:32N 47°34' W 122°21'0 0.0
2014-Oct-16 02:33N 47°34' W 122°21'0 0.0
2014-Oct-16 02:32N 47°34' W 122°21'0 0.0
2014-Oct-16 01:33N 47°34' W 122°21'0 0.0
2014-Oct-16 01:31N 47°34' W 122°21'0 0.0
2014-Oct-16 00:33N 47°34' W 122°21'0 0.0
2014-Oct-16 00:26N 47°34' W 122°21'0 0.0
2014-Oct-15 23:33N 47°34' W 122°21'0 0.0
2014-Oct-15 23:31N 47°34' W 122°21'0 0.0
2014-Oct-15 22:33N 47°34' W 122°21'0 0.0
2014-Oct-15 22:31N 47°34' W 122°21'0 0.0
2014-Oct-15 21:33N 47°34' W 122°21'0 0.0
2014-Oct-15 21:31N 47°34' W 122°21'0 0.0
2014-Oct-15 20:33N 47°34' W 122°21'0 0.0
2014-Oct-15 20:31N 47°34' W 122°21'0 0.0
2014-Oct-15 19:33N 47°34' W 122°21'0 0.0
2014-Oct-15 19:31N 47°34' W 122°21'0 0.0
2014-Oct-15 18:33N 47°34' W 122°21'0 0.0
2014-Oct-15 18:31N 47°34' W 122°21'0 0.0
2014-Oct-15 17:33N 47°34' W 122°21'0 0.0
2014-Oct-15 17:31N 47°34' W 122°21'0 0.0
2014-Oct-15 16:33N 47°34' W 122°21'0 0.0
2014-Oct-15 16:25N 47°34' W 122°21'0 0.0
2014-Oct-15 15:33N 47°34' W 122°21'0 0.0
2014-Oct-15 15:30N 47°34' W 122°21'0 0.0
2014-Oct-15 14:33N 47°34' W 122°21'0 0.0
2014-Oct-15 14:30N 47°34' W 122°21'0 0.0
2014-Oct-15 13:33N 47°34' W 122°21'0 0.0
2014-Oct-15 13:30N 47°34' W 122°21'0 0.0
2014-Oct-15 12:33N 47°34' W 122°21'0 0.0
2014-Oct-15 12:30N 47°34' W 122°21'0 0.0
2014-Oct-15 11:33N 47°34' W 122°21'0 0.0
2014-Oct-15 11:30N 47°34' W 122°21'0 0.0
2014-Oct-15 10:33N 47°34' W 122°21'0 0.0
2014-Oct-15 09:33N 47°34' W 122°21'0 0.0
2014-Oct-15 08:33N 47°34' W 122°21'0 0.0
2014-Oct-15 07:59N 47°34' W 122°21'0 0.0
2014-Oct-15 07:33N 47°34' W 122°21'0 0.1
2014-Oct-15 07:29N 47°34' W 122°21'0 0.0
2014-Oct-15 06:34N 47°34' W 122°21'0 0.0
2014-Oct-15 06:33N 47°34' W 122°21'0 0.0
2014-Oct-15 05:59N 47°34' W 122°21'0 0.0
2014-Oct-15 05:33N 47°34' W 122°21'0 0.0
2014-Oct-15 04:33N 47°34' W 122°21'0 0.0
2014-Oct-15 03:33N 47°34' W 122°21'0 0.0
2014-Oct-15 02:33N 47°34' W 122°21'0 0.0
2014-Oct-15 01:33N 47°34' W 122°21'0 0.1
2014-Oct-15 01:28N 47°34' W 122°21'0 0.0
2014-Oct-15 00:33N 47°34' W 122°21'0 0.0
2014-Oct-15 00:33N 47°34' W 122°21'0 0.0
2014-Oct-14 23:33N 47°34' W 122°21'0 0.0
2014-Oct-14 23:33N 47°34' W 122°21'0 0.0
2014-Oct-14 22:33N 47°34' W 122°21'0 0.0
2014-Oct-14 21:33N 47°34' W 122°21'0 0.0
2014-Oct-14 21:03N 47°34' W 122°21'0 0.0
2014-Oct-14 20:33N 47°34' W 122°21'0 0.0
2014-Oct-14 20:27N 47°34' W 122°21'0 0.0
2014-Oct-14 19:33N 47°34' W 122°21'0 0.0
2014-Oct-14 19:33N 47°34' W 122°21'0 0.0
2014-Oct-14 18:33N 47°34' W 122°21'0 0.0
2014-Oct-14 18:32N 47°34' W 122°21'0 0.0
2014-Oct-14 17:33N 47°34' W 122°21'0 0.0
2014-Oct-14 16:33N 47°34' W 122°21'0 0.0
2014-Oct-14 15:33N 47°34' W 122°21'0 0.0
2014-Oct-14 14:33N 47°34' W 122°21'0 0.2
2014-Oct-14 14:09N 47°34' W 122°21'0 0.0
2014-Oct-14 13:33N 47°34' W 122°21'0 0.0
2014-Oct-14 13:29N 47°34' W 122°21'0 0.0
2014-Oct-14 12:33N 47°34' W 122°21'0 0.0
2014-Oct-14 12:29N 47°34' W 122°21'0 0.0
2014-Oct-14 11:33N 47°34' W 122°21'0 0.0
2014-Oct-14 11:29N 47°34' W 122°21'0 0.0
2014-Oct-14 10:33N 47°34' W 122°21'0 0.0
2014-Oct-14 10:29N 47°34' W 122°21'0 0.0
2014-Oct-14 09:33N 47°34' W 122°21'0 0.0
2014-Oct-14 09:29N 47°34' W 122°21'0 0.0
2014-Oct-14 08:33N 47°34' W 122°21'0 0.0
2014-Oct-14 08:29N 47°34' W 122°21'0 0.0
2014-Oct-14 07:33N 47°34' W 122°21'0 0.0
2014-Oct-14 07:29N 47°34' W 122°21'0 0.0
2014-Oct-14 06:33N 47°34' W 122°21'0 0.0
2014-Oct-14 06:29N 47°34' W 122°21'0 0.0
2014-Oct-14 06:03N 47°34' W 122°21'0 0.0
2014-Oct-14 05:33N 47°34' W 122°21'0 0.0
2014-Oct-14 04:33N 47°34' W 122°21'0 0.0
2014-Oct-14 04:28N 47°34' W 122°21'0 0.0
2014-Oct-14 03:33N 47°34' W 122°21'0 0.0
2014-Oct-14 03:33N 47°34' W 122°21'0 0.0
2014-Oct-14 02:33N 47°34' W 122°21'0 0.0
2014-Oct-14 02:33N 47°34' W 122°21'0 0.0
2014-Oct-14 01:33N 47°34' W 122°21'0 0.0
2014-Oct-14 01:33N 47°34' W 122°21'0 0.0
2014-Oct-14 00:33N 47°34' W 122°21'0 0.0
2014-Oct-14 00:33N 47°34' W 122°21'0 0.0
2014-Oct-13 23:33N 47°34' W 122°21'0 1.1
2014-Oct-13 23:33N 47°34' W 122°21'0 0.0
2014-Oct-13 22:33N 47°34' W 122°21'0 0.0
2014-Oct-13 22:21N 47°34' W 122°21'0 0.0
2014-Oct-13 21:33N 47°34' W 122°21'0 0.0
2014-Oct-13 21:31N 47°34' W 122°21'0 0.0
2014-Oct-13 20:34N 47°34' W 122°21'0 0.0
2014-Oct-13 20:31N 47°34' W 122°21'0 0.0
2014-Oct-13 19:33N 47°34' W 122°21'0 0.0
2014-Oct-13 19:31N 47°34' W 122°21'0 0.0
2014-Oct-13 18:33N 47°34' W 122°21'0 0.0
2014-Oct-13 18:30N 47°34' W 122°21'0 0.0
2014-Oct-13 17:33N 47°34' W 122°21'0 0.0
2014-Oct-13 17:14N 47°34' W 122°21'0 0.0
2014-Oct-13 16:33N 47°34' W 122°21'0 0.0
2014-Oct-13 16:30N 47°34' W 122°21'0 0.0
2014-Oct-13 15:33N 47°34' W 122°21'0 0.0
2014-Oct-13 15:14N 47°34' W 122°21'0 0.0
2014-Oct-13 14:33N 47°34' W 122°21'0 0.0
2014-Oct-13 14:29N 47°34' W 122°21'0 0.0
2014-Oct-13 13:33N 47°34' W 122°21'0 0.0
2014-Oct-13 13:29N 47°34' W 122°21'0 0.0
2014-Oct-13 12:33N 47°34' W 122°21'0 0.0
2014-Oct-13 12:29N 47°34' W 122°21'0 0.0
2014-Oct-13 11:33N 47°34' W 122°21'0 0.0
2014-Oct-13 11:29N 47°34' W 122°21'0 0.0
2014-Oct-13 10:33N 47°34' W 122°21'0 0.0
2014-Oct-13 10:24N 47°34' W 122°21'0 0.0
2014-Oct-13 09:33N 47°34' W 122°21'0 0.0
2014-Oct-13 08:33N 47°34' W 122°21'0 0.0
2014-Oct-13 07:33N 47°34' W 122°21'0 0.0
2014-Oct-13 06:59N 47°34' W 122°21'0 0.0
2014-Oct-13 06:33N 47°34' W 122°21'0 0.0
2014-Oct-13 06:29N 47°34' W 122°21'0 0.0
2014-Oct-13 05:59N 47°34' W 122°21'0 0.0
2014-Oct-13 05:33N 47°34' W 122°21'0 0.0
2014-Oct-13 04:33N 47°34' W 122°21'0 0.0
2014-Oct-13 04:28N 47°34' W 122°21'0 0.0
2014-Oct-13 03:34N 47°34' W 122°21'0 0.0
2014-Oct-13 03:33N 47°34' W 122°21'0 0.0
2014-Oct-13 02:32N 47°34' W 122°21'0 0.0
2014-Oct-13 02:01N 47°34' W 122°21'0 0.0
2014-Oct-13 01:33N 47°34' W 122°21'0 0.0
2014-Oct-13 01:31N 47°34' W 122°21'0 0.0
2014-Oct-13 00:33N 47°34' W 122°21'  
Track history (hours):
 
Tides and Currents Weather Stations Pressure Air Temp Water Temp Dewpoint Dewpoint Depression Visibility Wind Speed Wind Dir Waves Ship Positions

Ernest Campbell

Owner: Campbell Leasing Company LLC, Wrangell, AK. More information available from US FCC via Universal Licensing System and Coast Guard Vessel Documentation Center.

Last reported at 2014-Oct-23 00:33 UTC. Time now 2014-Oct-23 01:34 UTC.
Position N 47°35' W 122°21'.

Length 33 m; draft 4.6 m.

Type: Tow > 200 m length. MMSI: 366882320.

Date/timePositionNaut miles runAvg speedWind from/ knotsBaromVisibWave heightAir tempDewpointWater temp
2014-Oct-23 00:33N 47°35' W 122°21'0 0.0
2014-Oct-23 00:24N 47°35' W 122°21'0 0.0
2014-Oct-22 23:33N 47°35' W 122°21'0 0.0
2014-Oct-22 23:24N 47°35' W 122°21'0 0.0
2014-Oct-22 22:33N 47°35' W 122°21'0 0.0
2014-Oct-22 22:33N 47°35' W 122°21'0 0.0
2014-Oct-22 21:33N 47°35' W 122°21'0 0.0
2014-Oct-22 21:33N 47°35' W 122°21'0 0.0
2014-Oct-22 20:30N 47°35' W 122°21'0 0.0
2014-Oct-22 20:18N 47°35' W 122°21'0 0.0
2014-Oct-22 19:27N 47°35' W 122°21'0 0.0
2014-Oct-22 19:18N 47°35' W 122°21'0 0.1
2014-Oct-22 18:33N 47°35' W 122°21'0 0.0
2014-Oct-22 18:33N 47°35' W 122°21'0 0.0
2014-Oct-22 17:33N 47°35' W 122°21'0 0.0
2014-Oct-22 17:33N 47°35' W 122°21'0 0.0
2014-Oct-22 16:09N 47°35' W 122°21'0 0.1
2014-Oct-22 16:03N 47°35' W 122°21'0 0.0
2014-Oct-22 15:33N 47°35' W 122°21'0 0.0
2014-Oct-22 15:33N 47°35' W 122°21'0 0.0
2014-Oct-22 14:33N 47°35' W 122°21'0 0.0
2014-Oct-22 14:33N 47°35' W 122°21'0 0.0
2014-Oct-22 13:33N 47°35' W 122°21'0 0.0
2014-Oct-22 13:27N 47°35' W 122°21'0 0.0
2014-Oct-22 12:30N 47°35' W 122°21'0 0.0
2014-Oct-22 12:27N 47°35' W 122°21'0 0.0
2014-Oct-22 11:33N 47°35' W 122°21'0 0.0
2014-Oct-22 11:12N 47°35' W 122°21'0 0.0
2014-Oct-22 10:27N 47°35' W 122°21'0 0.0
2014-Oct-22 09:18N 47°35' W 122°21'0 0.0
2014-Oct-22 08:33N 47°35' W 122°21'0 0.0
2014-Oct-22 07:30N 47°35' W 122°21'0 0.0
2014-Oct-22 06:57N 47°35' W 122°21'0 0.0
2014-Oct-22 06:30N 47°35' W 122°21'0 0.0
2014-Oct-22 06:27N 47°35' W 122°21'0 0.0
2014-Oct-22 05:57N 47°35' W 122°21'0 0.0
2014-Oct-22 05:24N 47°35' W 122°21'0 0.0
2014-Oct-22 04:30N 47°35' W 122°21'0 0.0
2014-Oct-22 03:27N 47°35' W 122°21'0 0.0
2014-Oct-22 02:24N 47°35' W 122°21'0 0.0
2014-Oct-22 00:11N 47°35' W 122°21'1 1.9
2014-Oct-21 23:52N 47°35' W 122°21'0 1.3
2014-Oct-21 23:33N 47°34' W 122°21'0 2.5
2014-Oct-21 23:33N 47°34' W 122°21'1 1.2
2014-Oct-21 22:33N 47°36' W 122°21'0 2.2
2014-Oct-21 22:33N 47°36' W 122°21'2 2.1
2014-Oct-21 21:33N 47°37' W 122°24'0 3.1
2014-Oct-21 21:31N 47°37' W 122°24'5 5.5
2014-Oct-21 20:33N 47°41' W 122°28'0 6.1
2014-Oct-21 20:31N 47°41' W 122°28'6 6.3
2014-Oct-21 19:33N 47°47' W 122°28'0 6.4
2014-Oct-21 19:31N 47°47' W 122°28'6 6.4
2014-Oct-21 18:33N 47°53' W 122°30'0 6.2
2014-Oct-21 18:31N 47°54' W 122°30'6 5.9
2014-Oct-21 17:33N 47°58' W 122°36'5 5.3
2014-Oct-21 16:32N 48°03' W 122°39'5 4.4
2014-Oct-21 15:31N 48°07' W 122°41'4 4.1
2014-Oct-21 14:31N 48°10' W 122°46'5 4.5
2014-Oct-21 13:27N 48°14' W 122°50'6 6.1
2014-Oct-21 12:32N 48°19' W 122°47'6 5.9
2014-Oct-21 11:33N 48°25' W 122°45'5 5.4
2014-Oct-21 10:33N 48°30' W 122°45'5 4.6
2014-Oct-21 09:33N 48°35' W 122°45'5 5.0
2014-Oct-21 08:33N 48°40' W 122°44'6 5.6
2014-Oct-21 07:33N 48°45' W 122°47'7 6.2
2014-Oct-21 06:30N 48°51' W 122°46'1 0.1
2014-Oct-20 23:06N 48°52' W 122°45'0 0.1
2014-Oct-20 14:18N 48°51' W 122°46'2 2.0
2014-Oct-20 13:33N 48°50' W 122°46'7 7.1
2014-Oct-20 12:33N 48°43' W 122°44'7 7.0
2014-Oct-20 11:33N 48°36' W 122°45'8 7.9
2014-Oct-20 10:33N 48°28' W 122°44'9 7.6
2014-Oct-20 09:26N 48°19' W 122°46'17 5.9
2014-Oct-20 06:31N 48°03' W 122°38'7 7.1
2014-Oct-20 05:33N 47°57' W 122°32'0 5.5
2014-Oct-20 05:32N 47°57' W 122°32'7 7.3
2014-Oct-20 04:33N 47°51' W 122°27'0 2.6
2014-Oct-20 04:33N 47°51' W 122°27'8 7.7
2014-Oct-20 03:33N 47°43' W 122°26'0 0.0
2014-Oct-20 03:33N 47°43' W 122°26'7 6.9
2014-Oct-20 02:33N 47°37' W 122°23'0 6.6
2014-Oct-20 02:33N 47°37' W 122°23'2 1.7
2014-Oct-20 01:29N 47°35' W 122°21'0 0.3
2014-Oct-20 01:08N 47°35' W 122°21'1 1.9
2014-Oct-20 00:33N 47°34' W 122°21'0 0.0
2014-Oct-20 00:27N 47°34' W 122°21'0 0.0
2014-Oct-19 23:33N 47°34' W 122°21'0 0.0
2014-Oct-19 23:12N 47°34' W 122°21'0 0.0
2014-Oct-19 22:33N 47°34' W 122°21'0 0.0
2014-Oct-19 22:27N 47°34' W 122°21'0 0.0
2014-Oct-19 21:33N 47°34' W 122°21'0 0.0
2014-Oct-19 21:27N 47°34' W 122°21'0 0.0
2014-Oct-19 20:33N 47°34' W 122°21'0 0.0
2014-Oct-19 20:27N 47°34' W 122°21'0 0.0
2014-Oct-19 19:33N 47°34' W 122°21'0 0.0
2014-Oct-19 19:30N 47°34' W 122°21'0 0.0
2014-Oct-19 18:33N 47°34' W 122°21'0 0.0
2014-Oct-19 18:24N 47°34' W 122°21'0 0.0
2014-Oct-19 17:27N 47°34' W 122°21'0 0.0
2014-Oct-19 17:18N 47°34' W 122°21'0 0.0
2014-Oct-19 16:30N 47°34' W 122°21'0 0.0
2014-Oct-19 16:21N 47°34' W 122°21'0 0.0
2014-Oct-19 15:33N 47°34' W 122°21'0 0.0
2014-Oct-19 15:21N 47°34' W 122°21'0 0.0
2014-Oct-19 14:33N 47°34' W 122°21'0 0.0
2014-Oct-19 14:11N 47°34' W 122°21'0 0.0
2014-Oct-19 13:29N 47°34' W 122°21'0 0.0
2014-Oct-19 13:26N 47°34' W 122°21'0 0.0
2014-Oct-19 12:32N 47°34' W 122°21'0 0.0
2014-Oct-19 12:26N 47°34' W 122°21'0 0.0
2014-Oct-19 11:26N 47°34' W 122°21'0 0.0
2014-Oct-19 11:26N 47°34' W 122°21'0 0.0
2014-Oct-19 10:32N 47°34' W 122°21'0 0.0
2014-Oct-19 10:26N 47°34' W 122°21'0 0.0
2014-Oct-19 09:32N 47°34' W 122°21'0 0.0
2014-Oct-19 09:26N 47°34' W 122°21'0 0.0
2014-Oct-19 08:32N 47°34' W 122°21'0 0.0
2014-Oct-19 08:05N 47°34' W 122°21'0 0.0
2014-Oct-19 07:32N 47°34' W 122°21'0 0.0
2014-Oct-19 07:20N 47°34' W 122°21'0 0.0
2014-Oct-19 06:32N 47°34' W 122°21'0 0.0
2014-Oct-19 05:35N 47°34' W 122°21'0 0.0
2014-Oct-19 05:29N 47°34' W 122°21'0 0.0
2014-Oct-19 04:26N 47°34' W 122°21'0 0.0
2014-Oct-19 04:20N 47°34' W 122°21'0 0.0
2014-Oct-19 03:32N 47°34' W 122°21'0 0.0
2014-Oct-19 03:20N 47°34' W 122°21'0 0.0
2014-Oct-19 02:32N 47°34' W 122°21'0 0.0
2014-Oct-19 02:19N 47°34' W 122°21'0 0.0
2014-Oct-19 01:32N 47°34' W 122°21'0 0.0
2014-Oct-19 00:32N 47°34' W 122°21'0 0.0
2014-Oct-18 23:29N 47°34' W 122°21'0 0.0
2014-Oct-18 22:29N 47°34' W 122°21'0 0.0
2014-Oct-18 21:31N 47°34' W 122°21'0 0.0
2014-Oct-18 21:04N 47°34' W 122°21'0 0.0
2014-Oct-18 20:31N 47°34' W 122°21'0 0.0
2014-Oct-18 20:19N 47°34' W 122°21'0 0.0
2014-Oct-18 19:33N 47°34' W 122°21'0 0.0
2014-Oct-18 19:29N 47°34' W 122°21'0 0.0
2014-Oct-18 18:33N 47°34' W 122°21'0 0.0
2014-Oct-18 18:24N 47°34' W 122°21'0 0.0
2014-Oct-18 17:33N 47°34' W 122°21'0 0.0
2014-Oct-18 17:28N 47°34' W 122°21'0 0.0
2014-Oct-18 16:33N 47°34' W 122°21'0 0.0
2014-Oct-18 16:28N 47°34' W 122°21'0 0.0
2014-Oct-18 15:33N 47°34' W 122°21'0 0.0
2014-Oct-18 15:29N 47°34' W 122°21'0 0.0
2014-Oct-18 14:33N 47°34' W 122°21'0 0.0
2014-Oct-18 14:29N 47°34' W 122°21'0 0.0
2014-Oct-18 13:33N 47°34' W 122°21'0 0.0
2014-Oct-18 13:33N 47°34' W 122°21'0 0.0
2014-Oct-18 12:34N 47°34' W 122°21'0 0.0
2014-Oct-18 12:34N 47°34' W 122°21'0 0.0
2014-Oct-18 11:34N 47°34' W 122°21'0 0.0
2014-Oct-18 11:33N 47°34' W 122°21'0 0.0
2014-Oct-18 10:33N 47°34' W 122°21'0 0.0
2014-Oct-18 10:22N 47°34' W 122°21'0 0.0
2014-Oct-18 09:34N 47°34' W 122°21'0 0.0
2014-Oct-18 09:33N 47°34' W 122°21'0 0.0
2014-Oct-18 08:34N 47°34' W 122°21'0 0.2
2014-Oct-18 08:32N 47°34' W 122°21'0 0.0
2014-Oct-18 07:33N 47°34' W 122°21'0 0.0
2014-Oct-18 07:32N 47°34' W 122°21'0 0.0
2014-Oct-18 06:33N 47°34' W 122°21'0 0.0
2014-Oct-18 06:32N 47°34' W 122°21'0 0.0
2014-Oct-18 05:57N 47°34' W 122°21'0 0.0
2014-Oct-18 05:33N 47°34' W 122°21'0 0.0
2014-Oct-18 04:33N 47°34' W 122°21'0 0.0
2014-Oct-18 04:32N 47°34' W 122°21'0 0.0
2014-Oct-18 03:33N 47°34' W 122°21'0 0.0
2014-Oct-18 03:32N 47°34' W 122°21'0 0.0
2014-Oct-18 02:34N 47°34' W 122°21'0 0.0
2014-Oct-18 02:32N 47°34' W 122°21'0 0.0
2014-Oct-18 01:34N 47°34' W 122°21'0 0.0
2014-Oct-18 01:32N 47°34' W 122°21'0 0.0
2014-Oct-18 00:33N 47°34' W 122°21'0 0.0
2014-Oct-18 00:32N 47°34' W 122°21'0 0.0
2014-Oct-17 23:33N 47°34' W 122°21'0 0.0
2014-Oct-17 23:32N 47°34' W 122°21'0 0.0
2014-Oct-17 22:34N 47°34' W 122°21'0 0.0
2014-Oct-17 22:32N 47°34' W 122°21'0 0.0
2014-Oct-17 21:34N 47°34' W 122°21'0 0.0
2014-Oct-17 21:31N 47°34' W 122°21'0 0.0
2014-Oct-17 20:33N 47°34' W 122°21'0 0.0
2014-Oct-17 20:31N 47°34' W 122°21'0 0.0
2014-Oct-17 19:34N 47°34' W 122°21'0 0.1
2014-Oct-17 19:31N 47°34' W 122°21'0 0.0
2014-Oct-17 18:34N 47°34' W 122°21'0 0.0
2014-Oct-17 18:31N 47°34' W 122°21'0 0.0
2014-Oct-17 17:34N 47°34' W 122°21'0 0.0
2014-Oct-17 17:31N 47°34' W 122°21'0 0.0
2014-Oct-17 16:34N 47°34' W 122°21'0 0.0
2014-Oct-17 16:31N 47°34' W 122°21'0 0.0
2014-Oct-17 15:33N 47°34' W 122°21'0 0.0
2014-Oct-17 15:31N 47°34' W 122°21'0 0.0
2014-Oct-17 14:33N 47°34' W 122°21'0 0.0
2014-Oct-17 14:31N 47°34' W 122°21'0 0.0
2014-Oct-17 13:33N 47°34' W 122°21'0 0.0
2014-Oct-17 13:31N 47°34' W 122°21'0 0.0
2014-Oct-17 12:33N 47°34' W 122°21'0 0.0
2014-Oct-17 12:25N 47°34' W 122°21'0 0.0
2014-Oct-17 11:33N 47°34' W 122°21'0 0.0
2014-Oct-17 11:30N 47°34' W 122°21'0 0.0
2014-Oct-17 10:33N 47°34' W 122°21'0 0.0
2014-Oct-17 10:30N 47°34' W 122°21'0 0.0
2014-Oct-17 09:32N 47°34' W 122°21'0 0.0
2014-Oct-17 09:30N 47°34' W 122°21'0 0.0
2014-Oct-17 08:33N 47°34' W 122°21'0 0.1
2014-Oct-17 08:29N 47°34' W 122°21'0 0.0
2014-Oct-17 07:33N 47°34' W 122°21'0 0.0
2014-Oct-17 07:02N 47°34' W 122°21'0 0.0
2014-Oct-17 06:33N 47°34' W 122°21'0 0.0
2014-Oct-17 06:32N 47°34' W 122°21'0 0.0
2014-Oct-17 05:28N 47°34' W 122°21'0 0.0
2014-Oct-17 04:33N 47°34' W 122°21'0 0.0
2014-Oct-17 04:29N 47°34' W 122°21'0 0.0
2014-Oct-17 03:33N 47°34' W 122°21'0 0.0
2014-Oct-17 03:29N 47°34' W 122°21'0 0.0
2014-Oct-17 02:33N 47°34' W 122°21'0 0.0
2014-Oct-17 02:29N 47°34' W 122°21'0 0.0
2014-Oct-17 01:33N 47°34' W 122°21'0 0.0
2014-Oct-17 01:29N 47°34' W 122°21'0 0.0
2014-Oct-17 00:33N 47°34' W 122°21'0 0.0
2014-Oct-17 00:29N 47°34' W 122°21'0 0.0
2014-Oct-16 23:33N 47°34' W 122°21'0 0.0
2014-Oct-16 23:29N 47°34' W 122°21'0 0.0
2014-Oct-16 22:33N 47°34' W 122°21'0 0.0
2014-Oct-16 22:28N 47°34' W 122°21'0 0.0
2014-Oct-16 21:33N 47°34' W 122°21'0 0.0
2014-Oct-16 21:33N 47°34' W 122°21'0 0.0
2014-Oct-16 20:33N 47°34' W 122°21'0 0.0
2014-Oct-16 20:33N 47°34' W 122°21'0 0.0
2014-Oct-16 19:33N 47°34' W 122°21'0 0.0
2014-Oct-16 19:33N 47°34' W 122°21'0 0.0
2014-Oct-16 18:33N 47°34' W 122°21'0 0.0
2014-Oct-16 18:33N 47°34' W 122°21'0 0.0
2014-Oct-16 17:33N 47°34' W 122°21'0 0.0
2014-Oct-16 17:33N 47°34' W 122°21'0 0.0
2014-Oct-16 16:33N 47°34' W 122°21'0 0.0
2014-Oct-16 16:33N 47°34' W 122°21'0 0.0
2014-Oct-16 15:33N 47°34' W 122°21'0 0.0
2014-Oct-16 15:33N 47°34' W 122°21'0 0.0
2014-Oct-16 14:33N 47°34' W 122°21'0 0.0
2014-Oct-16 14:33N 47°34' W 122°21'0 0.0
2014-Oct-16 13:33N 47°34' W 122°21'0 0.0
2014-Oct-16 13:33N 47°34' W 122°21'0 0.0
2014-Oct-16 12:33N 47°34' W 122°21'0 0.0
2014-Oct-16 12:33N 47°34' W 122°21'0 0.0
2014-Oct-16 11:33N 47°34' W 122°21'0 0.0
2014-Oct-16 11:28N 47°34' W 122°21'0 0.0
2014-Oct-16 10:33N 47°34' W 122°21'0 0.0
2014-Oct-16 10:32N 47°34' W 122°21'0 0.0
2014-Oct-16 09:33N 47°34' W 122°21'0 0.0
2014-Oct-16 09:32N 47°34' W 122°21'0 0.0
2014-Oct-16 08:33N 47°34' W 122°21'0 0.0
2014-Oct-16 08:32N 47°34' W 122°21'0 0.0
2014-Oct-16 07:33N 47°34' W 122°21'0 0.0
2014-Oct-16 07:32N 47°34' W 122°21'0 0.0
2014-Oct-16 06:33N 47°34' W 122°21'0 0.0
2014-Oct-16 06:32N 47°34' W 122°21'0 0.0
2014-Oct-16 05:57N 47°34' W 122°21'0 0.0
2014-Oct-16 05:33N 47°34' W 122°21'0 0.0
2014-Oct-16 04:33N 47°34' W 122°21'0 0.0
2014-Oct-16 04:32N 47°34' W 122°21'0 0.0
2014-Oct-16 03:33N 47°34' W 122°21'0 0.0
2014-Oct-16 03:32N 47°34' W 122°21'0 0.0
2014-Oct-16 02:33N 47°34' W 122°21'0 0.0
2014-Oct-16 02:32N 47°34' W 122°21'0 0.0
2014-Oct-16 01:33N 47°34' W 122°21'0 0.0
2014-Oct-16 01:31N 47°34' W 122°21'0 0.0
2014-Oct-16 00:33N 47°34' W 122°21'0 0.0
2014-Oct-16 00:26N 47°34' W 122°21'0 0.0
2014-Oct-15 23:33N 47°34' W 122°21'0 0.0
2014-Oct-15 23:31N 47°34' W 122°21'0 0.0
2014-Oct-15 22:33N 47°34' W 122°21'0 0.0
2014-Oct-15 22:31N 47°34' W 122°21'0 0.0
2014-Oct-15 21:33N 47°34' W 122°21'0 0.0
2014-Oct-15 21:31N 47°34' W 122°21'0 0.0
2014-Oct-15 20:33N 47°34' W 122°21'0 0.0
2014-Oct-15 20:31N 47°34' W 122°21'0 0.0
2014-Oct-15 19:33N 47°34' W 122°21'0 0.0
2014-Oct-15 19:31N 47°34' W 122°21'0 0.0
2014-Oct-15 18:33N 47°34' W 122°21'0 0.0
2014-Oct-15 18:31N 47°34' W 122°21'0 0.0
2014-Oct-15 17:33N 47°34' W 122°21'0 0.0
2014-Oct-15 17:31N 47°34' W 122°21'0 0.0
2014-Oct-15 16:33N 47°34' W 122°21'0 0.0
2014-Oct-15 16:25N 47°34' W 122°21'0 0.0
2014-Oct-15 15:33N 47°34' W 122°21'0 0.0
2014-Oct-15 15:30N 47°34' W 122°21'0 0.0
2014-Oct-15 14:33N 47°34' W 122°21'0 0.0
2014-Oct-15 14:30N 47°34' W 122°21'0 0.0
2014-Oct-15 13:33N 47°34' W 122°21'0 0.0
2014-Oct-15 13:30N 47°34' W 122°21'0 0.0
2014-Oct-15 12:33N 47°34' W 122°21'0 0.0
2014-Oct-15 12:30N 47°34' W 122°21'0 0.0
2014-Oct-15 11:33N 47°34' W 122°21'0 0.0
2014-Oct-15 11:30N 47°34' W 122°21'0 0.0
2014-Oct-15 10:33N 47°34' W 122°21'0 0.0
2014-Oct-15 09:33N 47°34' W 122°21'0 0.0
2014-Oct-15 08:33N 47°34' W 122°21'0 0.0
2014-Oct-15 07:59N 47°34' W 122°21'0 0.0
2014-Oct-15 07:33N 47°34' W 122°21'0 0.1
2014-Oct-15 07:29N 47°34' W 122°21'0 0.0
2014-Oct-15 06:34N 47°34' W 122°21'0 0.0
2014-Oct-15 06:33N 47°34' W 122°21'0 0.0
2014-Oct-15 05:59N 47°34' W 122°21'0 0.0
2014-Oct-15 05:33N 47°34' W 122°21'0 0.0
2014-Oct-15 04:33N 47°34' W 122°21'0 0.0
2014-Oct-15 03:33N 47°34' W 122°21'0 0.0
2014-Oct-15 02:33N 47°34' W 122°21'0 0.0
2014-Oct-15 01:33N 47°34' W 122°21'0 0.1
2014-Oct-15 01:28N 47°34' W 122°21'0 0.0
2014-Oct-15 00:33N 47°34' W 122°21'0 0.0
2014-Oct-15 00:33N 47°34' W 122°21'0 0.0
2014-Oct-14 23:33N 47°34' W 122°21'0 0.0
2014-Oct-14 23:33N 47°34' W 122°21'0 0.0
2014-Oct-14 22:33N 47°34' W 122°21'0 0.0
2014-Oct-14 21:33N 47°34' W 122°21'0 0.0
2014-Oct-14 21:03N 47°34' W 122°21'0 0.0
2014-Oct-14 20:33N 47°34' W 122°21'0 0.0
2014-Oct-14 20:27N 47°34' W 122°21'0 0.0
2014-Oct-14 19:33N 47°34' W 122°21'0 0.0
2014-Oct-14 19:33N 47°34' W 122°21'0 0.0
2014-Oct-14 18:33N 47°34' W 122°21'0 0.0
2014-Oct-14 18:32N 47°34' W 122°21'0 0.0
2014-Oct-14 17:33N 47°34' W 122°21'0 0.0
2014-Oct-14 16:33N 47°34' W 122°21'0 0.0
2014-Oct-14 15:33N 47°34' W 122°21'0 0.0
2014-Oct-14 14:33N 47°34' W 122°21'0 0.2
2014-Oct-14 14:09N 47°34' W 122°21'0 0.0
2014-Oct-14 13:33N 47°34' W 122°21'0 0.0
2014-Oct-14 13:29N 47°34' W 122°21'0 0.0
2014-Oct-14 12:33N 47°34' W 122°21'0 0.0
2014-Oct-14 12:29N 47°34' W 122°21'0 0.0
2014-Oct-14 11:33N 47°34' W 122°21'0 0.0
2014-Oct-14 11:29N 47°34' W 122°21'0 0.0
2014-Oct-14 10:33N 47°34' W 122°21'0 0.0
2014-Oct-14 10:29N 47°34' W 122°21'0 0.0
2014-Oct-14 09:33N 47°34' W 122°21'0 0.0
2014-Oct-14 09:29N 47°34' W 122°21'0 0.0
2014-Oct-14 08:33N 47°34' W 122°21'0 0.0
2014-Oct-14 08:29N 47°34' W 122°21'0 0.0
2014-Oct-14 07:33N 47°34' W 122°21'0 0.0
2014-Oct-14 07:29N 47°34' W 122°21'0 0.0
2014-Oct-14 06:33N 47°34' W 122°21'0 0.0
2014-Oct-14 06:29N 47°34' W 122°21'0 0.0
2014-Oct-14 06:03N 47°34' W 122°21'0 0.0
2014-Oct-14 05:33N 47°34' W 122°21'0 0.0
2014-Oct-14 04:33N 47°34' W 122°21'0 0.0
2014-Oct-14 04:28N 47°34' W 122°21'0 0.0
2014-Oct-14 03:33N 47°34' W 122°21'0 0.0
2014-Oct-14 03:33N 47°34' W 122°21'0 0.0
2014-Oct-14 02:33N 47°34' W 122°21'0 0.0
2014-Oct-14 02:33N 47°34' W 122°21'0 0.0
2014-Oct-14 01:33N 47°34' W 122°21'0 0.0
2014-Oct-14 01:33N 47°34' W 122°21'0 0.0
2014-Oct-14 00:33N 47°34' W 122°21'0 0.0
2014-Oct-14 00:33N 47°34' W 122°21'0 0.0
2014-Oct-13 23:33N 47°34' W 122°21'0 1.1
2014-Oct-13 23:33N 47°34' W 122°21'0 0.0
2014-Oct-13 22:33N 47°34' W 122°21'0 0.0
2014-Oct-13 22:21N 47°34' W 122°21'0 0.0
2014-Oct-13 21:33N 47°34' W 122°21'0 0.0
2014-Oct-13 21:31N 47°34' W 122°21'0 0.0
2014-Oct-13 20:34N 47°34' W 122°21'0 0.0
2014-Oct-13 20:31N 47°34' W 122°21'0 0.0
2014-Oct-13 19:33N 47°34' W 122°21'0 0.0
2014-Oct-13 19:31N 47°34' W 122°21'0 0.0
2014-Oct-13 18:33N 47°34' W 122°21'0 0.0
2014-Oct-13 18:30N 47°34' W 122°21'0 0.0
2014-Oct-13 17:33N 47°34' W 122°21'0 0.0
2014-Oct-13 17:14N 47°34' W 122°21'0 0.0
2014-Oct-13 16:33N 47°34' W 122°21'0 0.0
2014-Oct-13 16:30N 47°34' W 122°21'0 0.0
2014-Oct-13 15:33N 47°34' W 122°21'0 0.0
2014-Oct-13 15:14N 47°34' W 122°21'0 0.0
2014-Oct-13 14:33N 47°34' W 122°21'0 0.0
2014-Oct-13 14:29N 47°34' W 122°21'0 0.0
2014-Oct-13 13:33N 47°34' W 122°21'0 0.0
2014-Oct-13 13:29N 47°34' W 122°21'0 0.0
2014-Oct-13 12:33N 47°34' W 122°21'0 0.0
2014-Oct-13 12:29N 47°34' W 122°21'0 0.0
2014-Oct-13 11:33N 47°34' W 122°21'0 0.0
2014-Oct-13 11:29N 47°34' W 122°21'0 0.0
2014-Oct-13 10:33N 47°34' W 122°21'0 0.0
2014-Oct-13 10:24N 47°34' W 122°21'0 0.0
2014-Oct-13 09:33N 47°34' W 122°21'0 0.0
2014-Oct-13 08:33N 47°34' W 122°21'0 0.0
2014-Oct-13 07:33N 47°34' W 122°21'0 0.0
2014-Oct-13 06:59N 47°34' W 122°21'0 0.0
2014-Oct-13 06:33N 47°34' W 122°21'0 0.0
2014-Oct-13 06:29N 47°34' W 122°21'0 0.0
2014-Oct-13 05:59N 47°34' W 122°21'0 0.0
2014-Oct-13 05:33N 47°34' W 122°21'0 0.0
2014-Oct-13 04:33N 47°34' W 122°21'0 0.0
2014-Oct-13 04:28N 47°34' W 122°21'0 0.0
2014-Oct-13 03:34N 47°34' W 122°21'0 0.0
2014-Oct-13 03:33N 47°34' W 122°21'0 0.0
2014-Oct-13 02:32N 47°34' W 122°21'0 0.0
2014-Oct-13 02:01N 47°34' W 122°21'0 0.0
2014-Oct-13 01:33N 47°34' W 122°21'0 0.0
2014-Oct-13 01:31N 47°34' W 122°21'0 0.0
2014-Oct-13 00:33N 47°34' W 122°21'  

Dump ship's entire track history